Flight Track Log - Related Links

Times and Time Zones

All times are in EDT time to prevent confusion due to time zone crossing. See the N469S flight status page for this flight to view local times or setup timezone preferences in your user account.

Time Position Orientation Groundspeed Altitude Reporting Facility
EDT Latitude Longitude Course Direction KTS MPH feet Rate Location/Type
Tue 12:21:43 PM 43.6333 -79.3333 236° Southwest 110 127 1,600  Level Toronto Center
Tue 12:22:43 PM 43.6167 -79.2833 115° Southeast 130 150 2,500 1,050 Climbing Toronto Center
Tue 12:23:43 PM 43.6000 -79.2667 144° Southeast 120 138 3,700 1,100 Climbing Toronto Center
Tue 12:24:43 PM 43.5667 -79.2667 180° South 130 150 4,700 1,000 Climbing Toronto Center
Tue 12:25:00 PM 43.3035 -79.8510 224° Southwest  Level FlightAware Approximate
Tue 12:25:43 PM 43.5500 -79.3167 245° Southwest 130 150 5,700  Level Toronto Center
Tue 12:26:00 PM 43.2702 -79.8953 224° Southwest  Level FlightAware Approximate
Tue 12:26:43 PM 43.5167 -79.3333 200° South 130 150 6,300  Level Toronto Center
Tue 12:27:00 PM 43.2432 -79.9470 236° Southwest  Level FlightAware Approximate
Tue 12:27:43 PM 43.4833 -79.3833 227° Southwest 150 173 6,900  Level Toronto Center
Tue 12:28:43 PM 43.4500 -79.4333 227° Southwest 160 184 7,000 50 Climbing Toronto Center
Tue 12:29:43 PM 43.4167 -79.4667 216° Southwest 180 207 7,000 200 Level Toronto Center
Tue 12:30:43 PM 43.3833 -79.5167 227° Southwest 170 196 7,400 350 Climbing Toronto Center
Tue 12:31:43 PM 43.3500 -79.5667 227° Southwest 170 196 7,700 300 Climbing Toronto Center
Tue 12:32:43 PM 43.3333 -79.6333 251° West 170 196 8,000 350 Climbing Toronto Center
Tue 12:33:43 PM 43.3000 -79.6833 228° Southwest 160 184 8,400 350 Climbing Toronto Center
Tue 12:34:43 PM 43.2833 -79.7167 236° Southwest 160 184 8,700 300 Climbing Toronto Center
Tue 12:35:43 PM 43.2500 -79.8000 241° Southwest 170 196 9,000 300 Climbing Toronto Center
Tue 12:36:43 PM 43.2333 -79.8333 236° Southwest 160 184 9,300 300 Climbing Toronto Center
Tue 12:37:43 PM 43.2000 -79.8833 228° Southwest 160 184 9,600 300 Climbing Toronto Center
Tue 12:38:43 PM 43.1667 -79.9333 228° Southwest 160 184 9,900 150 Climbing Toronto Center
Tue 12:39:43 PM 43.1500 -80.0000 251° West 170 196 9,900  Level Toronto Center
Tue 12:40:43 PM 43.1167 -80.0500 228° Southwest 180 207 9,900  Level Toronto Center
Tue 12:41:43 PM 43.1000 -80.1167 251° West 180 207 9,900  Level Toronto Center
Tue 12:42:43 PM 43.0667 -80.1500 216° Southwest 180 207 9,900  Level Toronto Center
Tue 12:43:43 PM 43.0333 -80.2000 228° Southwest 170 196 9,900  Level Toronto Center
Tue 12:44:43 PM 43.0167 -80.2667 251° West 180 207 9,900  Level Toronto Center
Tue 12:45:43 PM 42.9833 -80.3167 228° Southwest 180 207 9,900  Level Toronto Center
Tue 12:46:43 PM 42.9500 -80.3833 236° Southwest 180 207 9,900  Level Toronto Center
Tue 12:47:43 PM 42.9333 -80.4333 246° West 180 207 9,900  Level Toronto Center
Tue 12:48:43 PM 42.9000 -80.4833 228° Southwest 170 196 9,900  Level Toronto Center
Tue 12:49:43 PM 42.8667 -80.5500 236° Southwest 170 196 9,900  Level Toronto Center
Tue 12:50:26 PM 42.8603 -80.6003 260° West 179 206 9,900  Level Cleveland Center
Tue 12:51:26 PM 42.8353 -80.6511 236° Southwest 179 206 9,900  Level Cleveland Center
Tue 12:52:26 PM 42.8061 -80.7050 234° Southwest 179 206 9,900  Level Cleveland Center
Tue 12:53:26 PM 42.7769 -80.7642 236° Southwest 179 206 9,900  Level Cleveland Center
Tue 12:54:26 PM 42.7475 -80.8178 233° Southwest 174 200 9,900  Level Cleveland Center
Tue 12:55:26 PM 42.7183 -80.8686 232° Southwest 174 200 9,900  Level Cleveland Center
Tue 12:56:26 PM 42.6869 -80.9136 227° Southwest 174 200 9,900  Level Cleveland Center
Tue 12:57:26 PM 42.6472 -80.9503 214° Southwest 174 200 9,900  Level Cleveland Center
Tue 12:58:26 PM 42.6117 -80.9894 219° Southwest 174 200 9,900  Level Cleveland Center
Tue 12:59:26 PM 42.5719 -81.0258 214° Southwest 174 200 9,900  Level Cleveland Center
Tue 01:00:26 PM 42.5322 -81.0622 214° Southwest 174 200 9,900  Level Cleveland Center
Tue 01:01:26 PM 42.4944 -81.0986 215° Southwest 174 200 9,900  Level Cleveland Center
Tue 01:02:26 PM 42.4567 -81.1375 217° Southwest 174 200 9,900  Level Cleveland Center
Tue 01:03:26 PM 42.4150 -81.1736 213° Southwest 174 200 9,900  Level Cleveland Center
Tue 01:04:26 PM 42.3814 -81.2072 216° Southwest 179 206 9,900  Level Cleveland Center
Tue 01:05:26 PM 42.3417 -81.2433 214° Southwest 174 200 9,900  Level Cleveland Center
Tue 01:06:26 PM 42.3039 -81.2822 217° Southwest 174 200 9,900  Level Cleveland Center
Tue 01:07:26 PM 42.2639 -81.3183 214° Southwest 174 200 9,900  Level Cleveland Center
Tue 01:08:26 PM 42.2261 -81.3542 215° Southwest 174 200 9,900  Level Cleveland Center
Tue 01:09:26 PM 42.1864 -81.3931 216° Southwest 174 200 9,900  Level Cleveland Center
Tue 01:10:26 PM 42.1486 -81.4317 217° Southwest 174 200 9,900  Level Cleveland Center
Tue 01:11:06 PM 42.1192 -81.4536 209° Southwest 168 193 9,900  Level Cleveland Center
Tue 01:11:26 PM 42.1044 -81.4703 220° Southwest 174 200 9,900  Level Cleveland Center
Tue 01:11:42 PM 42.0961 -81.4814 225° Southwest 172 198 9,900  Level Cleveland Center
Tue 01:12:26 PM 42.0667 -81.5061 212° Southwest 174 200 9,900  Level Cleveland Center
Tue 01:12:43 PM 42.0542 -81.5200 220° Southwest 172 198 9,900  Level Cleveland Center
Tue 01:13:26 PM 42.0267 -81.5447 214° Southwest 174 200 9,900  Level Cleveland Center
Tue 01:13:43 PM 42.0164 -81.5558 219° Southwest 172 198 9,900  Level Cleveland Center
Tue 01:14:26 PM 41.9889 -81.5778 211° Southwest 174 200 9,900  Level Cleveland Center
Tue 01:14:50 PM 41.9742 -81.5942 220° Southwest 170 196 9,900  Level Cleveland Center
Tue 01:15:26 PM 41.9492 -81.6161 213° Southwest 174 200 9,900  Level Cleveland Center
Tue 01:15:57 PM 41.9322 -81.6353 220° Southwest 170 196 9,900  Level Cleveland Center
Tue 01:16:26 PM 41.9111 -81.6517 210° Southwest 174 200 9,900  Level Cleveland Center
Tue 01:16:57 PM 41.8922 -81.6711 217° Southwest 170 196 9,900  Level Cleveland Center
Tue 01:17:26 PM 41.8733 -81.6903 217° Southwest 174 200 9,900  Level Cleveland Center
Tue 01:17:52 PM 41.8586 -81.7039 215° Southwest 170 196 9,900  Level Cleveland Center
Tue 01:18:26 PM 41.8333 -81.7258 213° Southwest 174 200 9,900  Level Cleveland Center
Tue 01:18:52 PM 41.8186 -81.7422 220° Southwest 171 197 9,900 -300 Level Cleveland Center
Tue 01:19:26 PM 41.7872 -81.7417 179° South 174 200 9,600 -896 Descending Cleveland Center
Tue 01:19:59 PM 41.7581 -81.7411 179° South 204 235 8,900 -1,300 Descending Cleveland Center
Tue 01:20:26 PM 41.7311 -81.7378 175° South 193 222 8,300 -1,224 Descending Cleveland Center
Tue 01:20:48 PM 41.7122 -81.7375 179° South 205 236 7,900 -1,084 Descending Cleveland Center
Tue 01:21:49 PM 41.6519 -81.7392 181° South 208 239 6,800 -1,091 Descending Cleveland Center
Tue 01:22:49 PM 41.5978 -81.7411 182° South 192 221 5,700 -1,200 Descending Cleveland Center
Tue 01:23:44 PM 41.5519 -81.7375 177° South 192 221 4,500 -1,219 Descending Cleveland Center
Tue 01:24:57 PM 41.4933 -81.7392 181° South 155 178 3,100 -661 Descending Cleveland Center
Tue 01:25:51 PM 41.4683 -81.7581 210° Southwest 101 116 3,100 -397 Level Cleveland Center
Tue 01:26:58 PM 41.4450 -81.7908 226° Southwest 108 124 2,300 -750 Descending Cleveland Center
Tue 01:27:59 PM 41.4281 -81.8211 233° Southwest 101 116 1,500 Descending Cleveland Center
Tue 01:29:00 PM 41.4171 -81.8674 253° West  Level FlightAware Approximate
Tue 01:36:00 PM 41.3094 -82.1688 234° Southwest  Level Estimated
Tue 01:37:00 PM 41.2910 -82.2096 239° Southwest  Level FlightAware Approximate
Tue 01:38:00 PM 41.2725 -82.2504 239° Southwest  Level FlightAware Approximate
Tue 01:39:00 PM 41.2540 -82.2912 239° Southwest  Level FlightAware Approximate
Tue 01:40:00 PM 41.2355 -82.3320 239° Southwest  Level FlightAware Approximate
Tue 01:41:00 PM 41.2170 -82.3727 239° Southwest  Level FlightAware Approximate
Tue 01:42:00 PM 41.1985 -82.4134 239° Southwest  Level FlightAware Approximate
Tue 01:43:00 PM 41.1800 -82.4541 239° Southwest  Level FlightAware Approximate
Tue 01:44:00 PM 41.1647 -82.4971 234° Southwest  Level Estimated
Tue 01:45:00 PM 41.1433 -82.5352 233° Southwest  Level FlightAware Approximate
Tue 01:46:00 PM 41.1219 -82.5733 233° Southwest  Level FlightAware Approximate
Tue 01:47:00 PM 41.1005 -82.6114 233° Southwest  Level FlightAware Approximate
Tue 01:48:00 PM 41.0790 -82.6494 233° Southwest  Level FlightAware Approximate
Tue 01:49:00 PM 41.0576 -82.6874 233° Southwest  Level FlightAware Approximate
Tue 01:50:00 PM 41.0362 -82.7254 233° Southwest  Level FlightAware Approximate
Tue 01:51:00 PM 41.0147 -82.7634 233° Southwest  Level FlightAware Approximate
Tue 01:52:00 PM 40.9932 -82.8013 233° Southwest  Level FlightAware Approximate
Tue 01:53:00 PM 40.9717 -82.8392 233° Southwest  Level FlightAware Approximate
Tue 01:54:00 PM 40.9502 -82.8771 233° Southwest  Level FlightAware Approximate
Tue 01:55:00 PM 40.9287 -82.9150 233° Southwest  Level FlightAware Approximate
Tue 01:56:00 PM 40.9072 -82.9529 233° Southwest  Level FlightAware Approximate
Tue 01:57:00 PM 40.8856 -82.9907 233° Southwest  Level FlightAware Approximate
Tue 01:58:00 PM 40.8641 -83.0285 233° Southwest  Level FlightAware Approximate
Tue 01:59:00 PM 40.8425 -83.0662 233° Southwest  Level FlightAware Approximate
Tue 02:00:00 PM 40.8209 -83.1040 233° Southwest  Level FlightAware Approximate
Tue 02:01:00 PM 40.7994 -83.1417 233° Southwest  Level FlightAware Approximate
Tue 02:02:00 PM 40.7778 -83.1794 233° Southwest  Level FlightAware Approximate
Tue 02:03:00 PM 40.7561 -83.2171 233° Southwest  Level FlightAware Approximate
Tue 02:04:00 PM 40.7345 -83.2547 233° Southwest  Level FlightAware Approximate
Tue 02:05:00 PM 40.7129 -83.2923 233° Southwest  Level FlightAware Approximate
Tue 02:06:00 PM 40.6912 -83.3299 233° Southwest  Level FlightAware Approximate
Tue 02:07:00 PM 40.6696 -83.3675 233° Southwest  Level FlightAware Approximate
Tue 02:08:00 PM 40.6479 -83.4051 233° Southwest  Level FlightAware Approximate
Tue 02:09:00 PM 40.6262 -83.4426 233° Southwest  Level FlightAware Approximate
Tue 02:10:00 PM 40.6045 -83.4801 233° Southwest  Level FlightAware Approximate
Tue 02:11:00 PM 40.5914 -83.5239 230° Southwest  Level Estimated
Tue 02:12:00 PM 40.5672 -83.5586 227° Southwest  Level FlightAware Approximate
Tue 02:13:00 PM 40.5430 -83.5934 227° Southwest  Level FlightAware Approximate
Tue 02:14:00 PM 40.5188 -83.6280 227° Southwest  Level FlightAware Approximate
Tue 02:15:00 PM 40.4945 -83.6627 227° Southwest  Level FlightAware Approximate
Tue 02:16:00 PM 40.4703 -83.6973 227° Southwest  Level FlightAware Approximate
Tue 02:17:00 PM 40.4581 -83.7415 235° Southwest  Level Estimated
Tue 02:18:00 PM 40.4360 -83.7785 232° Southwest  Level FlightAware Approximate
Tue 02:19:00 PM 40.4139 -83.8155 232° Southwest  Level FlightAware Approximate
Tue 02:20:00 PM 40.3918 -83.8525 232° Southwest  Level FlightAware Approximate
Tue 02:21:00 PM 40.3697 -83.8895 232° Southwest  Level FlightAware Approximate
Tue 02:22:00 PM 40.3476 -83.9264 232° Southwest  Level FlightAware Approximate
Tue 02:23:00 PM 40.3254 -83.9633 232° Southwest  Level FlightAware Approximate
Tue 02:24:00 PM 40.3033 -84.0002 232° Southwest  Level FlightAware Approximate
Tue 02:25:00 PM 40.2924 -84.0449 267° West  Level Estimated
Tue 02:25:14 PM 41.3831 -81.9281 251° West 112 129 2,700  Level Cleveland Center
Tue 02:26:00 PM 40.2896 -84.0916 266° West  Level FlightAware Approximate
Tue 02:26:38 PM 41.3636 -81.9803 244° Southwest 121 139 4,200  Level Cleveland Center
Tue 02:27:00 PM 40.2868 -84.1384 266° West  Level FlightAware Approximate
Tue 02:27:38 PM 41.3506 -82.0186 246° West 127 146 5,500  Level Cleveland Center
Tue 02:28:00 PM 40.2840 -84.1852 266° West  Level FlightAware Approximate
Tue 02:28:38 PM 41.3356 -82.0569 242° Southwest 120 138 6,300  Level Cleveland Center
Tue 02:29:00 PM 40.2812 -84.2320 265° West  Level FlightAware Approximate
Tue 02:29:38 PM 41.3203 -82.1011 245° Southwest 120 138 7,200  Level Cleveland Center
Tue 02:30:38 PM 41.3053 -82.1394 242° Southwest 120 138 8,200 950 Climbing Cleveland Center
Tue 02:31:38 PM 41.2922 -82.1778 246° West 120 138 9,100 850 Climbing Cleveland Center
Tue 02:32:38 PM 41.2769 -82.2161 242° Southwest 120 138 9,900 750 Climbing Cleveland Center
Tue 02:33:38 PM 41.2619 -82.2597 245° Southwest 125 144 10,600 300 Climbing Cleveland Center
Tue 02:34:38 PM 41.2422 -82.3144 244° Southwest 149 171 10,500 -50 Descending Cleveland Center
Tue 02:35:38 PM 41.2228 -82.3692 245° Southwest 166 191 10,500  Level Cleveland Center
Tue 02:36:38 PM 41.2008 -82.4267 243° Southwest 172 198 10,500  Level Cleveland Center
Tue 02:37:38 PM 41.1789 -82.4894 245° Southwest 172 198 10,500  Level Cleveland Center
Tue 02:38:38 PM 41.1592 -82.5494 246° West 172 198 10,500  Level Cleveland Center
Tue 02:39:38 PM 41.1375 -82.6042 242° Southwest 167 192 10,500  Level Cleveland Center
Tue 02:40:38 PM 41.1156 -82.6586 242° Southwest 173 199 10,500  Level Cleveland Center
Tue 02:41:38 PM 41.0958 -82.7131 244° Southwest 173 199 10,500  Level Cleveland Center
Tue 02:42:38 PM 41.0739 -82.7700 243° Southwest 173 199 10,500  Level Cleveland Center
Tue 02:43:38 PM 41.0542 -82.8244 244° Southwest 173 199 10,500  Level Cleveland Center
Tue 02:44:38 PM 41.0342 -82.8789 244° Southwest 173 199 10,500  Level Cleveland Center
Tue 02:45:38 PM 41.0142 -82.9361 245° Southwest 174 200 10,500  Level Cleveland Center
Tue 02:46:38 PM 40.9922 -82.9903 242° Southwest 174 200 10,500  Level Cleveland Center
Tue 02:48:00 PM 40.9573 -83.0356 224° Southwest  Level FlightAware Approximate
Tue 02:55:00 PM 40.7781 -83.2672 224° Southwest  Level FlightAware Approximate

Login

Don't have an account? Register now (free) for customized features, flight alerts, and more!